Time;durP1;ratioP1;P1;durP2;ratioP2;P2;SDS_P1;SDS_P2;PMS_P1;PMS_P2;Temp;Humidity;BMP_temperature;BMP_pressure;BME280_temperature;BME280_humidity;BME280_pressure;Samples;Min_cycle;Max_cycle;Signal;HPM_P1;HPM_P2
2022/11/23 00:01:43;;;;;;;16.55;6.40;;;9.20;99.90;;;;;;6245854;22;20084;-86
2022/11/23 00:04:11;;;;;;;15.30;6.10;;;9.20;99.90;;;;;;6193909;23;20443;-87
2022/11/23 00:06:37;;;;;;;17.33;6.90;;;9.20;99.90;;;;;;6248010;22;20071;-86
2022/11/23 00:09:04;;;;;;;10.93;6.75;;;9.20;99.90;;;;;;6220438;23;20418;-87
2022/11/23 00:11:44;;;;;;;16.95;6.78;;;9.20;99.90;;;;;;6195201;23;20016;-87
2022/11/23 00:14:10;;;;;;;18.27;8.05;;;9.30;99.90;;;;;;6220696;23;20016;-87
2022/11/23 00:16:35;;;;;;;13.13;6.88;;;9.20;99.90;;;;;;6247284;22;20015;-87
2022/11/23 00:19:01;;;;;;;19.95;7.63;;;9.30;99.90;;;;;;6220166;23;20083;-88
2022/11/23 00:21:29;;;;;;;20.20;7.57;;;9.30;99.90;;;;;;6195878;23;20091;-85
2022/11/23 00:23:59;;;;;;;14.68;7.15;;;9.30;99.90;;;;;;6220507;23;20335;-87
2022/11/23 00:26:25;;;;;;;14.23;7.28;;;9.30;99.90;;;;;;6196137;23;20007;-87
2022/11/23 00:28:51;;;;;;;13.18;7.00;;;9.30;99.90;;;;;;6220499;23;20030;-87
2022/11/23 00:31:18;;;;;;;15.63;7.22;;;9.30;99.90;;;;;;6195466;23;20008;-87
2022/11/23 00:33:49;;;;;;;14.63;7.10;;;9.40;99.90;;;;;;6220232;23;20004;-86
2022/11/23 00:36:15;;;;;;;17.38;7.50;;;9.40;99.90;;;;;;6219886;23;20074;-86
2022/11/23 00:38:42;;;;;;;13.75;6.90;;;9.40;99.90;;;;;;6220478;23;20498;-86
2022/11/23 00:41:14;;;;;;;14.52;7.10;;;9.40;99.90;;;;;;6246750;22;20007;-86
2022/11/23 00:43:40;;;;;;;19.05;7.50;;;9.40;99.90;;;;;;6247429;23;20011;-86
2022/11/23 00:46:15;;;;;;;18.05;7.70;;;9.40;99.90;;;;;;6170064;23;20007;-86
2022/11/23 00:48:41;;;;;;;18.55;7.32;;;9.40;99.90;;;;;;6246978;23;20008;-87
2022/11/23 00:51:09;;;;;;;16.17;6.82;;;9.50;99.90;;;;;;6195158;23;20411;-86
2022/11/23 00:53:35;;;;;;;14.77;6.53;;;9.50;99.90;;;;;;6220240;23;20302;-86
2022/11/23 00:56:01;;;;;;;18.83;6.60;;;9.50;99.90;;;;;;6246662;23;20000;-86
2022/11/23 00:58:27;;;;;;;15.90;6.97;;;9.50;99.90;;;;;;6220546;23;20014;-86
2022/11/23 01:01:20;;;;;;;15.93;6.90;;;9.50;99.90;;;;;;6195263;23;20037;-87
2022/11/23 01:03:49;;;;;;;20.55;6.65;;;9.50;99.90;;;;;;6215420;23;20000;-86
2022/11/23 01:06:20;;;;;;;16.40;6.95;;;9.50;99.90;;;;;;6246838;22;19997;-87
2022/11/23 01:08:57;;;;;;;15.07;6.53;;;9.50;99.90;;;;;;6220221;23;20007;-86
2022/11/23 01:11:27;;;;;;;15.38;6.40;;;9.50;99.90;;;;;;6219961;22;20004;-86
2022/11/23 01:13:53;;;;;;;14.30;6.22;;;9.60;99.90;;;;;;6220331;23;20000;-86
2022/11/23 01:16:27;;;;;;;14.23;6.60;;;9.50;99.90;;;;;;6194520;23;20016;-86
2022/11/23 01:19:05;;;;;;;16.40;6.40;;;9.50;99.90;;;;;;6219587;23;20348;-85
2022/11/23 01:21:31;;;;;;;14.68;5.57;;;9.60;99.90;;;;;;6220169;23;20000;-85
2022/11/23 01:23:57;;;;;;;18.50;5.88;;;9.50;99.90;;;;;;6219880;23;20066;-85
2022/11/23 01:26:23;;;;;;;16.20;5.97;;;9.60;99.90;;;;;;6220095;23;20004;-85
2022/11/23 01:28:49;;;;;;;14.05;5.22;;;9.60;99.90;;;;;;6219822;23;20330;-86
2022/11/23 01:31:21;;;;;;;18.70;6.82;;;9.60;99.90;;;;;;6246222;22;20318;-85
2022/11/23 01:33:47;;;;;;;17.65;5.75;;;9.50;99.90;;;;;;6219896;23;20403;-85
2022/11/23 01:36:15;;;;;;;13.30;4.72;;;9.60;99.90;;;;;;6194732;23;20032;-86
2022/11/23 01:38:42;;;;;;;13.70;4.88;;;9.60;99.90;;;;;;6195182;23;20016;-86
2022/11/23 01:41:10;;;;;;;15.32;5.38;;;9.60;99.90;;;;;;6194326;23;20004;-85
2022/11/23 01:43:36;;;;;;;17.38;5.22;;;9.60;99.90;;;;;;6246729;22;19997;-85
2022/11/23 01:46:02;;;;;;;17.90;5.20;;;9.60;99.90;;;;;;6219625;23;20003;-86
2022/11/23 01:48:36;;;;;;;16.63;5.05;;;9.60;99.90;;;;;;6219725;23;20429;-85
2022/11/23 01:51:11;;;;;;;18.70;5.15;;;9.60;99.90;;;;;;6219578;23;20038;-86
2022/11/23 01:53:38;;;;;;;14.75;5.25;;;9.60;99.90;;;;;;6219809;23;20359;-85
2022/11/23 01:56:06;;;;;;;15.75;4.22;;;9.60;99.90;;;;;;6194473;23;20004;-85
2022/11/23 01:58:36;;;;;;;13.40;4.68;;;9.60;99.90;;;;;;6195017;23;20330;-85
2022/11/23 02:01:01;;;;;;;15.35;4.55;;;9.60;99.90;;;;;;6219613;23;19996;-85
2022/11/23 02:03:29;;;;;;;14.95;3.85;;;9.60;99.90;;;;;;6219550;23;20004;-84
2022/11/23 02:06:01;;;;;;;13.07;3.97;;;9.60;99.90;;;;;;6219456;23;20296;-84
2022/11/23 02:08:28;;;;;;;14.45;4.65;;;9.60;99.90;;;;;;6246397;23;20004;-84
2022/11/23 02:10:55;;;;;;;14.30;3.90;;;9.60;99.90;;;;;;6219562;23;19996;-84
2022/11/23 02:13:22;;;;;;;13.98;3.70;;;9.60;99.90;;;;;;6246409;22;20026;-84
2022/11/23 02:15:49;;;;;;;18.52;4.40;;;9.60;99.90;;;;;;6194334;23;20011;-84
2022/11/23 02:18:20;;;;;;;10.73;3.22;;;9.60;99.90;;;;;;6219265;23;20482;-85
2022/11/23 02:20:46;;;;;;;15.77;3.95;;;9.70;99.90;;;;;;6219629;23;20012;-85
2022/11/23 02:23:33;;;;;;;13.95;3.70;;;9.70;99.90;;;;;;6194065;23;20051;-85
2022/11/23 02:26:00;;;;;;;11.10;3.70;;;9.60;99.90;;;;;;6246269;22;19996;-85
2022/11/23 02:28:32;;;;;;;11.77;3.72;;;9.60;99.90;;;;;;6218674;23;20008;-85
2022/11/23 02:30:59;;;;;;;16.65;3.72;;;9.60;99.90;;;;;;6219025;23;20130;-84
2022/11/23 02:33:25;;;;;;;11.63;3.80;;;9.60;99.90;;;;;;6193953;23;20008;-84
2022/11/23 02:35:56;;;;;;;15.00;4.45;;;9.60;99.90;;;;;;6194174;23;20338;-84
2022/11/23 02:38:25;;;;;;;14.95;3.97;;;9.60;99.90;;;;;;6219044;23;20005;-85
2022/11/23 02:40:51;;;;;;;10.48;3.38;;;9.60;99.90;;;;;;6245650;22;20335;-85
2022/11/23 02:43:16;;;;;;;15.02;3.80;;;9.60;99.90;;;;;;6193998;23;20004;-85
2022/11/23 02:45:49;;;;;;;13.77;3.75;;;9.60;99.90;;;;;;6218787;23;20368;-84
2022/11/23 02:48:16;;;;;;;10.02;3.10;;;9.60;99.90;;;;;;6218450;23;19996;-84
2022/11/23 02:50:42;;;;;;;10.70;3.75;;;9.60;99.90;;;;;;6245575;23;20079;-85
2022/11/23 02:53:07;;;;;;;14.00;3.85;;;9.60;99.90;;;;;;6193862;23;20035;-85
2022/11/23 02:55:33;;;;;;;11.07;3.72;;;9.60;99.90;;;;;;6194030;23;20001;-84
2022/11/23 02:57:59;;;;;;;12.20;3.63;;;9.60;99.90;;;;;;6245976;22;20035;-84
2022/11/23 03:00:24;;;;;;;8.57;2.92;;;9.60;99.90;;;;;;6218932;23;20426;-84
2022/11/23 03:02:50;;;;;;;13.93;2.92;;;9.70;99.90;;;;;;6219057;23;20004;-84
2022/11/23 03:05:16;;;;;;;14.32;2.90;;;9.70;99.90;;;;;;6193831;23;20438;-84
2022/11/23 03:07:41;;;;;;;14.82;3.53;;;9.70;99.90;;;;;;6218742;23;20163;-84
2022/11/23 03:10:08;;;;;;;12.70;4.05;;;9.70;99.90;;;;;;6169336;23;20011;-84
2022/11/23 03:12:33;;;;;;;14.38;3.17;;;9.70;99.90;;;;;;6218527;23;20118;-84
2022/11/23 03:14:59;;;;;;;13.43;4.03;;;9.70;99.90;;;;;;6194130;23;20032;-84
2022/11/23 03:17:26;;;;;;;13.25;3.00;;;9.70;99.90;;;;;;6218925;23;20042;-84
2022/11/23 03:19:52;;;;;;;10.98;2.70;;;9.70;99.90;;;;;;6219472;23;20019;-84
2022/11/23 03:22:18;;;;;;;11.43;2.65;;;9.70;99.90;;;;;;6218839;23;20024;-84
2022/11/23 03:24:44;;;;;;;14.75;2.55;;;9.70;99.90;;;;;;6168737;23;20020;-83
2022/11/23 03:27:10;;;;;;;9.35;2.50;;;9.70;99.90;;;;;;6169264;23;20004;-84
2022/11/23 03:29:35;;;;;;;12.10;2.60;;;9.70;99.90;;;;;;6218651;23;20031;-84
2022/11/23 03:32:01;;;;;;;12.95;2.83;;;9.70;99.90;;;;;;6219179;23;20015;-84
2022/11/23 03:34:27;;;;;;;15.85;2.80;;;9.70;99.90;;;;;;6219104;23;20469;-84
2022/11/23 03:36:52;;;;;;;13.65;2.85;;;9.70;99.90;;;;;;6194088;23;20488;-84
2022/11/23 03:39:18;;;;;;;16.13;3.58;;;9.70;99.90;;;;;;6219240;23;20379;-84
2022/11/23 03:41:44;;;;;;;9.88;2.67;;;9.70;99.90;;;;;;6196373;23;20031;-83
2022/11/23 03:44:10;;;;;;;13.23;2.78;;;9.70;99.90;;;;;;6202692;23;20115;-85
2022/11/23 03:46:36;;;;;;;15.30;3.38;;;9.70;99.90;;;;;;6240115;23;20008;-83
2022/11/23 03:49:02;;;;;;;16.52;2.95;;;9.70;99.90;;;;;;6192702;23;20008;-84
2022/11/23 03:51:27;;;;;;;11.75;2.72;;;9.60;99.90;;;;;;6242037;23;20048;-84
2022/11/23 03:53:53;;;;;;;15.93;3.33;;;9.70;99.90;;;;;;6216089;23;20011;-85
2022/11/23 03:56:18;;;;;;;17.38;2.75;;;9.70;99.90;;;;;;6240173;23;20079;-86
2022/11/23 03:58:44;;;;;;;13.15;3.22;;;9.70;99.90;;;;;;6211681;23;20047;-84
2022/11/23 04:01:10;;;;;;;13.52;3.08;;;9.70;99.90;;;;;;6204346;23;20027;-84
2022/11/23 04:03:36;;;;;;;15.52;3.67;;;9.70;99.90;;;;;;6221006;23;20000;-83
2022/11/23 04:06:01;;;;;;;10.95;3.22;;;9.70;99.90;;;;;;6195790;23;20457;-83
2022/11/23 04:08:27;;;;;;;13.45;2.60;;;9.70;99.90;;;;;;6200126;23;20446;-84
2022/11/23 04:10:56;;;;;;;12.55;2.60;;;9.80;99.90;;;;;;6221161;23;20046;-84
2022/11/23 04:13:22;;;;;;;13.40;3.53;;;9.80;99.90;;;;;;6220314;23;20042;-84
2022/11/23 04:15:48;;;;;;;19.58;3.78;;;9.70;99.90;;;;;;6195619;23;20004;-84
2022/11/23 04:18:14;;;;;;;13.73;3.25;;;9.80;99.90;;;;;;6170810;23;20353;-84
2022/11/23 04:20:40;;;;;;;11.75;2.72;;;9.80;99.90;;;;;;6195307;23;20008;-84
2022/11/23 04:23:08;;;;;;;15.60;3.22;;;9.80;99.90;;;;;;6195155;23;20008;-84
2022/11/23 04:25:34;;;;;;;11.50;3.45;;;9.80;99.90;;;;;;6220704;23;20395;-84
2022/11/23 04:27:59;;;;;;;10.77;2.65;;;9.80;99.90;;;;;;6247439;22;20042;-84
2022/11/23 04:30:28;;;;;;;12.00;2.83;;;9.70;99.90;;;;;;6195308;23;20330;-84
2022/11/23 04:32:53;;;;;;;15.80;3.53;;;9.70;99.90;;;;;;6195579;23;20014;-84
2022/11/23 04:35:20;;;;;;;12.73;2.92;;;9.70;99.90;;;;;;6170551;23;20391;-84
2022/11/23 04:37:46;;;;;;;9.02;2.50;;;9.60;99.90;;;;;;6220392;23;20322;-84
2022/11/23 04:40:12;;;;;;;12.32;2.72;;;9.60;99.90;;;;;;6220373;23;20028;-84
2022/11/23 04:42:38;;;;;;;13.48;3.67;;;9.60;99.90;;;;;;6247141;22;20057;-84
2022/11/23 04:45:03;;;;;;;12.90;2.90;;;9.60;99.90;;;;;;6247022;22;20326;-83
2022/11/23 04:47:29;;;;;;;10.75;2.78;;;9.50;99.90;;;;;;6220254;23;20000;-84
2022/11/23 04:49:55;;;;;;;18.60;2.90;;;9.50;99.90;;;;;;6220329;23;20004;-83
2022/11/23 04:52:21;;;;;;;12.82;2.88;;;9.60;99.90;;;;;;6194633;23;20095;-83
2022/11/23 04:54:46;;;;;;;12.98;3.53;;;9.50;99.90;;;;;;6194833;23;20027;-84
2022/11/23 04:57:12;;;;;;;14.43;3.03;;;9.50;99.90;;;;;;6169514;23;20011;-84
2022/11/23 04:59:37;;;;;;;14.63;2.30;;;9.60;99.90;;;;;;6194837;23;20015;-83
2022/11/23 05:02:03;;;;;;;14.30;3.17;;;9.50;99.90;;;;;;6194795;23;20011;-83
2022/11/23 05:04:29;;;;;;;10.00;2.47;;;9.50;99.90;;;;;;6219852;23;20011;-85
2022/11/23 05:06:55;;;;;;;15.30;3.10;;;9.50;99.90;;;;;;6220430;23;20001;-83
2022/11/23 05:09:20;;;;;;;11.82;2.55;;;9.50;99.90;;;;;;6195024;23;20008;-83
2022/11/23 05:11:46;;;;;;;11.68;3.00;;;9.60;99.90;;;;;;6194499;22;20070;-84
2022/11/23 05:14:11;;;;;;;16.88;3.10;;;9.50;99.90;;;;;;6220322;23;20011;-84
2022/11/23 05:16:37;;;;;;;12.20;2.20;;;9.50;99.90;;;;;;6220096;23;20004;-84
2022/11/23 05:19:03;;;;;;;12.68;2.67;;;9.60;99.90;;;;;;6170094;23;20012;-84
2022/11/23 05:21:28;;;;;;;15.07;2.78;;;9.50;99.90;;;;;;6219868;23;20039;-85
2022/11/23 05:23:54;;;;;;;14.50;3.60;;;9.60;99.90;;;;;;6195115;23;20007;-84
2022/11/23 05:26:20;;;;;;;15.70;2.40;;;9.60;99.90;;;;;;6194859;23;20012;-83
2022/11/23 05:28:45;;;;;;;12.57;2.70;;;9.60;99.90;;;;;;6169559;23;20008;-84
2022/11/23 05:31:11;;;;;;;11.27;2.40;;;9.50;99.90;;;;;;6219890;23;20008;-84
2022/11/23 05:33:37;;;;;;;14.52;2.30;;;9.50;99.90;;;;;;6218892;23;20001;-84
2022/11/23 05:36:03;;;;;;;13.90;3.20;;;9.50;99.90;;;;;;6219789;23;20055;-83
2022/11/23 05:38:28;;;;;;;14.65;3.03;;;9.60;99.90;;;;;;6219682;23;20028;-84
2022/11/23 05:40:54;;;;;;;15.15;3.58;;;9.50;99.90;;;;;;6194599;23;20008;-84
2022/11/23 05:43:19;;;;;;;13.32;2.35;;;9.50;99.90;;;;;;6246674;23;20038;-84
2022/11/23 05:45:45;;;;;;;11.70;2.53;;;9.50;99.90;;;;;;6219722;23;20004;-84
2022/11/23 05:48:11;;;;;;;9.77;3.03;;;9.50;99.90;;;;;;6219875;23;20430;-84
2022/11/23 05:50:37;;;;;;;14.93;2.78;;;9.50;99.90;;;;;;6194508;23;20130;-84
2022/11/23 05:53:02;;;;;;;13.60;2.92;;;9.50;99.90;;;;;;6194318;23;20008;-84
2022/11/23 05:55:28;;;;;;;15.48;3.50;;;9.50;99.90;;;;;;6193124;23;20026;-84
2022/11/23 05:57:54;;;;;;;12.07;3.15;;;9.50;99.90;;;;;;6193984;23;20049;-83
2022/11/23 06:00:20;;;;;;;15.85;3.67;;;9.50;99.90;;;;;;6193772;23;20039;-83
2022/11/23 06:02:45;;;;;;;11.25;2.33;;;9.50;99.90;;;;;;6217894;23;20031;-84
2022/11/23 06:05:11;;;;;;;11.77;2.63;;;9.50;99.90;;;;;;6218971;23;20062;-84
2022/11/23 06:07:37;;;;;;;19.38;3.85;;;9.50;99.90;;;;;;6218135;23;19996;-84
2022/11/23 06:10:05;;;;;;;17.80;3.95;;;9.50;99.90;;;;;;6219477;23;20465;-83
2022/11/23 06:12:31;;;;;;;14.43;3.22;;;9.40;99.90;;;;;;6219347;23;20016;-82
2022/11/23 06:14:56;;;;;;;18.42;3.30;;;9.40;99.90;;;;;;6219414;23;20000;-82
2022/11/23 06:17:23;;;;;;;12.45;2.67;;;9.40;99.90;;;;;;6217058;23;20410;-83
2022/11/23 06:19:49;;;;;;;12.50;2.85;;;9.40;99.90;;;;;;6245802;22;20323;-83
2022/11/23 06:22:15;;;;;;;14.48;3.30;;;9.40;99.90;;;;;;6219684;23;20003;-83
2022/11/23 06:24:43;;;;;;;11.65;2.88;;;9.40;99.90;;;;;;6194059;23;20009;-83
2022/11/23 06:27:09;;;;;;;13.25;3.78;;;9.40;99.90;;;;;;6219069;23;20011;-82
2022/11/23 06:29:35;;;;;;;19.80;3.55;;;9.40;99.90;;;;;;6193715;23;20008;-84
2022/11/23 06:32:00;;;;;;;16.55;3.38;;;9.40;99.90;;;;;;6245659;22;20011;-83
2022/11/23 06:34:26;;;;;;;13.18;2.92;;;9.40;99.90;;;;;;6201171;23;20004;-81
2022/11/23 06:36:52;;;;;;;12.93;2.70;;;9.40;99.90;;;;;;6220661;23;20058;-82
2022/11/23 06:39:17;;;;;;;14.10;2.78;;;9.40;99.90;;;;;;6219424;23;20107;-82
2022/11/23 06:41:43;;;;;;;11.65;2.90;;;9.40;99.90;;;;;;6219551;23;20011;-83
2022/11/23 06:44:09;;;;;;;17.45;2.88;;;9.40;99.90;;;;;;6194564;23;20004;-83
2022/11/23 06:46:35;;;;;;;14.90;3.40;;;9.30;99.90;;;;;;6194359;23;20000;-83
2022/11/23 06:49:00;;;;;;;19.58;3.25;;;9.30;99.90;;;;;;6246142;23;20012;-83
2022/11/23 06:51:27;;;;;;;12.10;2.45;;;9.40;99.90;;;;;;6219515;23;20319;-84
2022/11/23 06:53:53;;;;;;;18.10;3.78;;;9.40;99.90;;;;;;6219206;23;20073;-83
2022/11/23 06:56:18;;;;;;;15.40;3.30;;;9.30;99.90;;;;;;6218867;23;20380;-83
2022/11/23 06:58:44;;;;;;;11.52;2.70;;;9.30;99.90;;;;;;6245847;22;20323;-83
2022/11/23 07:01:10;;;;;;;17.77;3.00;;;9.30;99.90;;;;;;6245903;22;20005;-83
2022/11/23 07:03:36;;;;;;;19.42;3.25;;;9.30;99.90;;;;;;6245913;23;19996;-83
2022/11/23 07:06:06;;;;;;;15.98;3.25;;;9.30;99.90;;;;;;6218208;23;20032;-83
2022/11/23 07:08:33;;;;;;;18.42;2.92;;;9.30;99.90;;;;;;6169592;23;20087;-83
2022/11/23 07:11:04;;;;;;;16.95;3.72;;;9.30;99.90;;;;;;6218926;23;20004;-83
2022/11/23 07:13:34;;;;;;;16.83;2.55;;;9.30;99.90;;;;;;6218971;23;20103;-84
2022/11/23 07:15:59;;;;;;;12.43;2.72;;;9.30;99.90;;;;;;6219368;23;20032;-84
2022/11/23 07:18:26;;;;;;;15.65;2.85;;;9.30;99.90;;;;;;6194611;23;20007;-83
2022/11/23 07:20:52;;;;;;;13.13;2.47;;;9.30;99.90;;;;;;6194252;23;20016;-83
2022/11/23 07:23:18;;;;;;;19.30;3.20;;;9.30;99.90;;;;;;6245761;22;20430;-83
2022/11/23 07:25:44;;;;;;;21.33;2.88;;;9.30;99.90;;;;;;6193723;23;20004;-90
2022/11/23 07:28:11;;;;;;;19.02;2.90;;;9.30;99.90;;;;;;6219218;23;20030;-83
2022/11/23 07:30:37;;;;;;;16.83;2.70;;;9.30;99.90;;;;;;6218992;23;20410;-82
2022/11/23 07:33:08;;;;;;;16.23;2.60;;;9.20;99.90;;;;;;6193617;23;20000;-83
2022/11/23 07:35:35;;;;;;;14.00;2.75;;;9.20;99.90;;;;;;6218602;23;20061;-83
2022/11/23 07:38:01;;;;;;;17.80;2.60;;;9.30;99.90;;;;;;6193820;23;20004;-83
2022/11/23 07:40:29;;;;;;;21.88;2.80;;;9.30;99.90;;;;;;6218949;23;20008;-86
2022/11/23 07:43:01;;;;;;;16.23;2.67;;;9.20;99.90;;;;;;6243859;22;20015;-85
2022/11/23 07:45:28;;;;;;;22.10;3.83;;;9.20;99.90;;;;;;6217596;23;20000;-85
2022/11/23 07:48:03;;;;;;;16.90;3.42;;;9.20;99.90;;;;;;6217971;23;20024;-84
2022/11/23 07:50:29;;;;;;;21.55;3.58;;;9.20;99.90;;;;;;6217968;23;20004;-86
2022/11/23 07:52:55;;;;;;;17.70;2.60;;;9.20;99.90;;;;;;6193523;23;20091;-84
2022/11/23 07:55:22;;;;;;;15.63;2.40;;;9.20;99.90;;;;;;6196874;23;20000;-85
2022/11/23 07:57:54;;;;;;;15.35;3.20;;;9.20;99.90;;;;;;6217823;23;20330;-86
2022/11/23 08:00:21;;;;;;;15.80;2.83;;;9.20;99.90;;;;;;6245437;23;20007;-83
2022/11/23 08:02:50;;;;;;;19.20;3.17;;;9.10;99.90;;;;;;6219407;23;20004;-83
2022/11/23 08:05:16;;;;;;;20.85;2.63;;;9.10;99.90;;;;;;6217928;23;20008;-84
2022/11/23 08:07:43;;;;;;;13.82;2.38;;;9.10;99.90;;;;;;6217279;23;20012;-85
2022/11/23 08:10:11;;;;;;;16.42;2.67;;;9.10;99.90;;;;;;6217996;23;20008;-84
2022/11/23 08:12:36;;;;;;;16.58;3.95;;;9.10;99.90;;;;;;6244697;22;20042;-83
2022/11/23 08:15:02;;;;;;;19.27;2.97;;;9.10;99.90;;;;;;6218335;23;20026;-83
2022/11/23 08:17:28;;;;;;;15.65;2.83;;;9.10;99.90;;;;;;6219127;23;20450;-83
2022/11/23 08:19:54;;;;;;;17.73;3.30;;;9.20;99.90;;;;;;6218882;23;20054;-84
2022/11/23 08:22:19;;;;;;;15.35;2.70;;;9.20;99.90;;;;;;6192727;23;20005;-83
2022/11/23 08:24:46;;;;;;;11.32;2.10;;;9.20;99.90;;;;;;6218868;23;20498;-83
2022/11/23 08:27:12;;;;;;;20.73;3.08;;;9.20;99.90;;;;;;6194944;23;20008;-83
2022/11/23 08:29:38;;;;;;;14.48;2.90;;;9.30;99.90;;;;;;6220746;23;20004;-82
2022/11/23 08:32:04;;;;;;;16.52;2.60;;;9.30;99.90;;;;;;6195178;23;20315;-83
2022/11/23 08:34:29;;;;;;;19.83;3.38;;;9.30;99.90;;;;;;6195045;23;20012;-84
2022/11/23 08:36:55;;;;;;;12.18;2.17;;;9.30;99.90;;;;;;6219690;23;20011;-84
2022/11/23 08:39:21;;;;;;;12.98;2.72;;;9.30;99.90;;;;;;6195047;23;20020;-83
2022/11/23 08:41:47;;;;;;;21.05;3.25;;;9.40;99.90;;;;;;6195158;23;20011;-83
2022/11/23 08:44:12;;;;;;;15.77;2.78;;;9.40;99.90;;;;;;6169867;23;20027;-83
2022/11/23 08:46:38;;;;;;;13.00;2.20;;;9.40;99.90;;;;;;6246930;22;20004;-84
2022/11/23 08:49:06;;;;;;;15.25;2.72;;;9.50;99.90;;;;;;6246291;23;20453;-83
2022/11/23 08:51:32;;;;;;;13.77;2.30;;;9.60;99.90;;;;;;6194287;23;20089;-82
2022/11/23 08:53:57;;;;;;;11.77;3.88;;;9.60;99.90;;;;;;6194407;23;20091;-83
2022/11/23 08:56:23;;;;;;;16.00;3.08;;;9.60;99.90;;;;;;6220040;23;20105;-83
2022/11/23 08:58:49;;;;;;;17.00;2.85;;;9.70;99.90;;;;;;6219950;23;20028;-82
2022/11/23 09:01:16;;;;;;;16.23;2.97;;;9.80;99.90;;;;;;6218894;23;20026;-86
2022/11/23 09:03:43;;;;;;;13.93;2.40;;;9.80;99.90;;;;;;6246718;23;20075;-83
2022/11/23 09:06:09;;;;;;;14.57;2.25;;;9.80;99.90;;;;;;6246840;23;20062;-83
2022/11/23 09:08:35;;;;;;;17.33;3.17;;;9.80;99.90;;;;;;6220096;23;20004;-82
2022/11/23 09:11:03;;;;;;;13.05;2.63;;;9.80;99.90;;;;;;6219675;23;20009;-82
2022/11/23 09:13:29;;;;;;;18.98;3.58;;;9.80;99.90;;;;;;6194837;23;20016;-82
2022/11/23 09:16:02;;;;;;;15.52;3.40;;;9.80;99.90;;;;;;6194170;23;20103;-84
2022/11/23 09:18:32;;;;;;;14.32;2.58;;;9.80;99.90;;;;;;6246571;23;20000;-83
2022/11/23 09:20:58;;;;;;;15.60;2.80;;;9.80;99.90;;;;;;6219238;23;20040;-83
2022/11/23 09:23:25;;;;;;;11.07;2.78;;;9.80;99.90;;;;;;6194439;23;20004;-83
2022/11/23 09:25:51;;;;;;;11.18;2.42;;;9.80;99.90;;;;;;6246680;22;20062;-83
2022/11/23 09:28:18;;;;;;;13.80;2.60;;;9.90;99.90;;;;;;6219351;23;20000;-83
2022/11/23 09:30:45;;;;;;;12.95;2.63;;;9.90;99.90;;;;;;6219876;23;20365;-83
2022/11/23 09:33:11;;;;;;;22.08;3.10;;;9.90;99.90;;;;;;6219371;23;20013;-82
2022/11/23 09:35:36;;;;;;;13.07;2.85;;;9.90;99.90;;;;;;6219691;23;20027;-82
2022/11/23 09:38:02;;;;;;;15.98;3.00;;;9.90;99.90;;;;;;6193883;23;20023;-82
2022/11/23 09:40:32;;;;;;;11.60;2.47;;;9.90;99.90;;;;;;6219689;23;20009;-81
2022/11/23 09:43:16;;;;;;;13.07;2.33;;;9.90;99.90;;;;;;6246362;23;20007;-84
2022/11/23 09:45:42;;;;;;;15.65;2.63;;;10.00;99.90;;;;;;6246439;23;20067;-83
2022/11/23 09:48:10;;;;;;;18.88;3.38;;;9.90;99.90;;;;;;6246219;22;20031;-82
2022/11/23 09:50:53;;;;;;;13.10;2.60;;;10.00;99.90;;;;;;6219374;23;20439;-82
2022/11/23 09:53:29;;;;;;;12.43;2.55;;;10.00;99.90;;;;;;6245978;23;20000;-83
2022/11/23 09:55:56;;;;;;;16.75;3.67;;;10.00;99.90;;;;;;6246003;23;20503;-82
2022/11/23 09:58:26;;;;;;;15.95;3.47;;;10.00;99.90;;;;;;6218926;23;20427;-82
2022/11/23 10:01:04;;;;;;;14.20;3.50;;;10.00;99.90;;;;;;6246056;23;20435;-83
2022/11/23 10:03:41;;;;;;;12.05;2.83;;;10.00;99.90;;;;;;6219114;23;20004;-82
2022/11/23 10:06:06;;;;;;;16.65;3.20;;;10.10;99.90;;;;;;6219221;23;20022;-82
2022/11/23 10:08:44;;;;;;;15.40;3.72;;;10.10;99.90;;;;;;6246202;23;20071;-82
2022/11/23 10:11:28;;;;;;;19.45;3.00;;;10.20;99.90;;;;;;6219109;23;20003;-82
2022/11/23 10:14:19;;;;;;;15.05;2.40;;;10.20;99.90;;;;;;6219005;23;20066;-83
2022/11/23 10:16:55;;;;;;;8.38;2.17;;;10.20;99.90;;;;;;6219277;23;20000;-82
2022/11/23 10:19:59;;;;;;;14.02;2.42;;;10.30;99.90;;;;;;6244160;22;20343;-82
2022/11/23 10:22:38;;;;;;;15.88;2.90;;;10.30;99.90;;;;;;6218384;23;20015;-83
2022/11/23 10:25:19;;;;;;;10.77;2.28;;;10.40;99.90;;;;;;6245711;23;20000;-83
2022/11/23 10:27:53;;;;;;;13.98;2.38;;;10.40;99.90;;;;;;6245490;23;20419;-81
2022/11/23 10:30:22;;;;;;;17.80;4.63;;;10.40;99.90;;;;;;6245419;22;20460;-82
2022/11/23 10:33:09;;;;;;;11.32;2.92;;;10.40;99.90;;;;;;6245757;23;20000;-82
2022/11/23 10:35:37;;;;;;;12.85;2.50;;;10.40;99.90;;;;;;6216494;23;20000;-82
2022/11/23 10:38:24;;;;;;;10.05;1.95;;;10.50;99.90;;;;;;6194237;23;20012;-82
2022/11/23 10:40:53;;;;;;;11.15;2.17;;;10.50;99.90;;;;;;6244722;23;20279;-83
2022/11/23 10:43:24;;;;;;;15.50;2.42;;;10.50;99.90;;;;;;6243964;23;20004;-83
2022/11/23 10:45:50;;;;;;;14.32;2.92;;;10.50;99.90;;;;;;6218562;23;20356;-82
2022/11/23 10:48:33;;;;;;;11.32;2.85;;;10.60;99.90;;;;;;6168574;23;20087;-82
2022/11/23 10:51:22;;;;;;;10.95;2.05;;;10.70;99.90;;;;;;6245746;23;20418;-82
2022/11/23 10:53:55;;;;;;;15.93;3.22;;;10.70;99.90;;;;;;6245155;23;19996;-81
2022/11/23 10:56:22;;;;;;;12.40;2.17;;;10.70;99.90;;;;;;6218053;23;20008;-82
2022/11/23 10:58:47;;;;;;;11.65;2.20;;;10.80;99.90;;;;;;6193530;23;20008;-82
2022/11/23 11:01:23;;;;;;;13.57;2.72;;;10.80;99.90;;;;;;6191375;23;20453;-90
2022/11/23 11:03:53;;;;;;;6.63;1.77;;;10.90;99.90;;;;;;6242631;23;20001;-83
2022/11/23 11:06:31;;;;;;;11.05;2.50;;;10.90;99.90;;;;;;6216436;23;20095;-84
2022/11/23 11:09:03;;;;;;;12.18;2.22;;;11.00;99.90;;;;;;6216278;23;20087;-82
2022/11/23 11:11:36;;;;;;;9.70;2.20;;;11.10;99.90;;;;;;6217461;23;20027;-82
2022/11/23 11:14:22;;;;;;;6.63;2.17;;;11.10;99.90;;;;;;6217796;23;20081;-81
2022/11/23 11:16:48;;;;;;;9.90;2.08;;;11.20;99.90;;;;;;6218078;23;20007;-82
2022/11/23 11:19:34;;;;;;;11.52;1.65;;;11.20;99.90;;;;;;6217932;23;20035;-86
2022/11/23 11:22:03;;;;;;;12.52;3.08;;;11.30;99.90;;;;;;6218654;23;20039;-82
2022/11/23 11:24:36;;;;;;;14.57;2.42;;;11.30;99.90;;;;;;6245072;22;20035;-82
2022/11/23 11:27:14;;;;;;;11.32;2.75;;;11.50;99.90;;;;;;6245438;23;19996;-82
2022/11/23 11:29:43;;;;;;;10.23;3.00;;;11.50;99.90;;;;;;6219001;23;20000;-82
2022/11/23 11:32:44;;;;;;;13.05;2.25;;;11.50;99.90;;;;;;6218513;23;20000;-82
2022/11/23 11:35:27;;;;;;;9.65;1.80;;;11.60;99.90;;;;;;6245643;23;20027;-92
2022/11/23 11:37:59;;;;;;;8.88;1.75;;;11.60;99.90;;;;;;6245080;23;19996;-81
2022/11/23 11:40:47;;;;;;;9.48;2.58;;;11.70;99.90;;;;;;6245223;23;20012;-82
2022/11/23 11:43:22;;;;;;;11.80;2.83;;;11.70;99.90;;;;;;6245188;23;20000;-82
2022/11/23 11:45:52;;;;;;;10.23;1.98;;;11.80;99.90;;;;;;6218619;23;20003;-82
2022/11/23 11:48:23;;;;;;;6.55;1.70;;;11.80;99.90;;;;;;6218274;23;20441;-84
2022/11/23 11:50:54;;;;;;;12.27;2.05;;;11.80;99.90;;;;;;6245436;23;20008;-83
2022/11/23 11:53:26;;;;;;;;;;;11.80;99.90;;;;;;6245565;23;20000;-82
2022/11/23 11:56:05;;;;;;;12.95;1.80;;;11.90;99.90;;;;;;6218575;23;19911;-82
2022/11/23 11:58:35;;;;;;;8.55;1.83;;;11.90;99.90;;;;;;6218207;23;20008;-82
2022/11/23 12:01:16;;;;;;;9.00;1.67;;;12.00;99.90;;;;;;6219077;23;20099;-81
2022/11/23 12:03:51;;;;;;;12.10;1.73;;;12.00;99.90;;;;;;6247050;23;20027;-81
2022/11/23 12:06:31;;;;;;;8.77;1.83;;;12.00;99.90;;;;;;6247451;23;20020;-81
2022/11/23 12:09:15;;;;;;;10.88;1.88;;;12.00;99.70;;;;;;6247505;23;20000;-80
2022/11/23 12:11:41;;;;;;;9.07;2.03;;;12.10;99.90;;;;;;6220136;23;20002;-82
2022/11/23 12:14:13;;;;;;;7.18;1.95;;;12.10;99.90;;;;;;6215137;23;20443;-82
2022/11/23 12:17:17;;;;;;;11.52;2.42;;;12.10;99.80;;;;;;6214958;23;20008;-81
2022/11/23 12:20:10;;;;;;;9.52;2.40;;;12.10;99.90;;;;;;6214500;23;20009;-81
2022/11/23 12:23:13;;;;;;;9.23;1.90;;;12.10;99.80;;;;;;6216495;23;20000;-81
2022/11/23 12:26:16;;;;;;;11.40;2.03;;;12.10;99.90;;;;;;6215793;23;20001;-80
2022/11/23 12:29:00;;;;;;;10.80;1.90;;;12.20;99.10;;;;;;6214782;23;20008;-81
2022/11/23 12:31:44;;;;;;;6.65;1.92;;;12.20;99.60;;;;;;6214319;23;20000;-81
2022/11/23 12:34:23;;;;;;;13.90;1.95;;;12.30;99.80;;;;;;6216676;23;20000;-81
2022/11/23 12:37:03;;;;;;;8.90;1.83;;;12.30;99.00;;;;;;6213926;23;20079;-81
2022/11/23 12:39:53;;;;;;;6.68;1.35;;;12.30;98.90;;;;;;6213817;23;20005;-82
2022/11/23 12:42:40;;;;;;;10.98;1.63;;;12.30;98.70;;;;;;6214806;23;20001;-81
2022/11/23 12:45:48;;;;;;;10.38;1.58;;;12.40;99.20;;;;;;6215076;23;20097;-81
2022/11/23 12:48:37;;;;;;;8.52;1.80;;;12.50;98.60;;;;;;6214504;23;20000;-82
2022/11/23 12:51:17;;;;;;;7.15;1.25;;;12.50;98.30;;;;;;6213330;23;20040;-82
2022/11/23 12:54:31;;;;;;;6.57;1.20;;;12.50;98.30;;;;;;6213047;23;20036;-85
2022/11/23 12:57:41;;;;;;;8.80;1.40;;;12.40;98.30;;;;;;6213166;23;20231;-84
2022/11/23 13:00:17;;;;;;;3.60;1.00;;;12.40;98.10;;;;;;6157807;23;20079;-83